createdAt,value
2018-04-14T00:00:06.647Z,12.80
2018-04-14T00:02:34.173Z,12.91
2018-04-14T00:05:01.778Z,12.84
2018-04-14T00:07:29.307Z,12.87
2018-04-14T00:09:56.824Z,12.84
2018-04-14T00:12:24.448Z,12.84
2018-04-14T00:14:52.007Z,12.85
2018-04-14T00:17:19.584Z,12.78
2018-04-14T00:19:47.142Z,12.78
2018-04-14T00:22:14.668Z,12.83
2018-04-14T00:24:42.262Z,12.72
2018-04-14T00:27:09.779Z,12.81
2018-04-14T00:29:37.299Z,12.76
2018-04-14T00:32:04.945Z,12.78
2018-04-14T00:34:32.459Z,12.80
2018-04-14T00:37:00.062Z,12.80
2018-04-14T00:39:27.623Z,12.71
2018-04-14T00:41:55.177Z,12.72
2018-04-14T00:44:22.701Z,12.69
2018-04-14T00:46:50.228Z,12.69
2018-04-14T00:49:17.759Z,12.70
2018-04-14T00:51:45.307Z,12.59
2018-04-14T00:54:12.837Z,12.56
2018-04-14T00:56:40.404Z,12.60
2018-04-14T00:59:07.956Z,12.55
2018-04-14T01:01:35.515Z,12.54
2018-04-14T01:04:03.121Z,12.57
2018-04-14T01:06:30.677Z,12.49
2018-04-14T01:08:58.237Z,12.47
2018-04-14T01:11:25.768Z,12.38
2018-04-14T01:13:54.147Z,12.34
2018-04-14T01:16:21.676Z,12.34
2018-04-14T01:18:49.232Z,12.34
2018-04-14T01:21:16.755Z,12.25
2018-04-14T01:23:44.284Z,12.26
2018-04-14T01:26:11.804Z,12.23
2018-04-14T01:28:39.849Z,12.22
2018-04-14T01:31:07.396Z,12.22
2018-04-14T01:33:34.922Z,12.15
2018-04-14T01:36:02.465Z,12.21
2018-04-14T01:38:30.086Z,12.17
2018-04-14T01:40:57.603Z,12.18
2018-04-14T01:43:25.206Z,12.20
2018-04-14T01:45:52.770Z,12.18
2018-04-14T01:48:20.298Z,12.29
2018-04-14T01:50:47.843Z,12.28
2018-04-14T01:53:15.435Z,12.13
2018-04-14T01:55:42.964Z,12.18
2018-04-14T01:58:10.570Z,12.15
2018-04-14T02:00:38.095Z,12.13
2018-04-14T02:03:05.696Z,12.13
2018-04-14T02:05:33.215Z,12.10
2018-04-14T02:08:00.900Z,12.19
2018-04-14T02:10:28.473Z,12.10
2018-04-14T02:12:56.001Z,12.13
2018-04-14T02:15:23.532Z,12.22
2018-04-14T02:17:51.127Z,12.23
2018-04-14T02:20:18.714Z,12.31
2018-04-14T02:22:46.260Z,12.23
2018-04-14T02:25:13.819Z,12.18
2018-04-14T02:27:41.351Z,12.15
2018-04-14T02:30:08.956Z,12.31
2018-04-14T02:32:36.507Z,12.32
2018-04-14T02:35:04.041Z,12.24
2018-04-14T02:37:31.568Z,12.40
2018-04-14T02:39:59.093Z,12.22
2018-04-14T02:42:26.653Z,12.15
2018-04-14T02:44:54.200Z,12.17
2018-04-14T02:47:21.739Z,12.22
2018-04-14T02:49:49.299Z,12.18
2018-04-14T02:52:16.832Z,12.07
2018-04-14T02:54:44.371Z,12.14
2018-04-14T02:57:11.895Z,12.13
2018-04-14T02:59:39.423Z,12.13
2018-04-14T03:02:07.036Z,12.11
2018-04-14T03:04:34.555Z,12.06
2018-04-14T03:07:02.091Z,12.03
2018-04-14T03:09:29.716Z,12.06
2018-04-14T03:11:57.235Z,12.06
2018-04-14T03:14:24.755Z,12.13
2018-04-14T03:16:52.395Z,12.12
2018-04-14T03:19:19.915Z,12.08
2018-04-14T03:21:47.515Z,12.06
2018-04-14T03:24:15.036Z,12.12
2018-04-14T03:26:42.619Z,12.07
2018-04-14T03:29:10.147Z,12.16
2018-04-14T03:31:37.711Z,12.16
2018-04-14T03:34:05.240Z,12.18
2018-04-14T03:36:32.770Z,12.29
2018-04-14T03:39:00.295Z,12.14
2018-04-14T03:41:27.899Z,12.11
2018-04-14T03:43:55.419Z,12.16
2018-04-14T03:46:23.039Z,12.19
2018-04-14T03:48:50.585Z,12.26
2018-04-14T03:51:18.115Z,12.18
2018-04-14T03:53:45.631Z,12.17
2018-04-14T03:56:13.182Z,12.13
2018-04-14T03:58:40.696Z,12.10
2018-04-14T04:01:08.225Z,12.18
2018-04-14T04:03:35.763Z,12.16
2018-04-14T04:06:03.386Z,12.12
2018-04-14T04:08:30.917Z,12.21
2018-04-14T04:10:58.444Z,12.06
2018-04-14T04:13:26.064Z,12.07
2018-04-14T04:15:53.583Z,12.14
2018-04-14T04:18:32.964Z,12.21
2018-04-14T04:21:12.507Z,12.06
2018-04-14T04:23:52.059Z,12.04
2018-04-14T04:26:19.579Z,12.00
2018-04-14T04:28:47.094Z,12.04
2018-04-14T04:31:14.727Z,11.93
2018-04-14T04:33:42.252Z,11.83
2018-04-14T04:36:09.775Z,11.87
2018-04-14T04:38:37.307Z,11.92
2018-04-14T04:41:04.862Z,11.82
2018-04-14T04:43:32.422Z,11.68
2018-04-14T04:45:59.940Z,11.73
2018-04-14T04:48:27.505Z,11.68
2018-04-14T04:50:55.064Z,11.79
2018-04-14T04:53:22.632Z,11.71
2018-04-14T04:55:50.152Z,11.76
2018-04-14T04:58:17.680Z,11.81
2018-04-14T05:00:45.211Z,11.84
2018-04-14T05:03:12.727Z,11.80
2018-04-14T05:05:40.353Z,11.73
2018-04-14T05:08:07.924Z,11.80
2018-04-14T05:10:35.444Z,11.86
2018-04-14T05:13:03.041Z,11.94
2018-04-14T05:15:30.604Z,11.92
2018-04-14T05:17:58.165Z,11.80
2018-04-14T05:20:25.691Z,11.92
2018-04-14T05:22:53.213Z,11.89
2018-04-14T05:25:20.831Z,11.90
2018-04-14T05:27:48.347Z,11.96
2018-04-14T05:30:15.895Z,12.00
2018-04-14T05:32:43.514Z,11.94
2018-04-14T05:35:11.077Z,12.02
2018-04-14T05:37:38.599Z,11.99
2018-04-14T05:40:06.190Z,11.92
2018-04-14T05:42:33.734Z,11.89
2018-04-14T05:45:01.321Z,11.82
2018-04-14T05:47:28.881Z,11.75
2018-04-14T05:49:56.402Z,11.78
2018-04-14T05:52:23.973Z,11.85
2018-04-14T05:54:51.551Z,11.96
2018-04-14T05:57:19.128Z,12.05
2018-04-14T05:59:46.790Z,11.98
2018-04-14T06:02:14.334Z,12.05
2018-04-14T06:04:41.896Z,12.05
2018-04-14T06:07:09.471Z,12.02
2018-04-14T06:09:37.000Z,12.16
2018-04-14T06:12:04.529Z,12.04
2018-04-14T06:14:32.144Z,12.07
2018-04-14T06:16:59.711Z,12.08
2018-04-14T06:19:27.265Z,11.96
2018-04-14T06:21:54.799Z,12.16
2018-04-14T06:24:22.357Z,12.17
2018-04-14T06:26:49.946Z,12.02
2018-04-14T06:29:17.467Z,12.13
2018-04-14T06:31:45.022Z,12.05
2018-04-14T06:34:12.553Z,12.08
2018-04-14T06:36:40.124Z,12.03
2018-04-14T06:39:07.750Z,12.13
2018-04-14T06:41:35.275Z,12.02
2018-04-14T06:44:02.871Z,12.13
2018-04-14T06:46:30.431Z,12.14
2018-04-14T06:48:57.990Z,12.23
2018-04-14T06:51:25.553Z,12.38
2018-04-14T06:53:53.079Z,12.35
2018-04-14T06:56:20.656Z,12.40
2018-04-14T06:58:48.334Z,12.68
2018-04-14T07:01:15.991Z,12.74
2018-04-14T07:03:43.552Z,12.86
2018-04-14T07:06:11.072Z,12.88
2018-04-14T07:08:38.675Z,13.00
2018-04-14T07:11:06.232Z,12.97
2018-04-14T07:13:33.762Z,13.18
2018-04-14T07:16:01.343Z,13.33
2018-04-14T07:18:28.872Z,13.41
2018-04-14T07:20:56.428Z,13.20
2018-04-14T07:23:23.988Z,13.14
2018-04-14T07:25:51.564Z,13.46
2018-04-14T07:28:19.124Z,13.35
2018-04-14T07:30:46.670Z,13.23
2018-04-14T07:33:14.278Z,13.39
2018-04-14T07:35:41.792Z,13.55
2018-04-14T07:38:09.351Z,14.00
2018-04-14T07:40:36.884Z,14.11
2018-04-14T07:43:04.403Z,14.20
2018-04-14T07:45:31.975Z,14.47
2018-04-14T07:47:59.535Z,14.56
2018-04-14T07:50:27.061Z,14.67
2018-04-14T07:52:54.612Z,14.76
2018-04-14T07:55:22.203Z,14.51
2018-04-14T07:57:49.731Z,14.40
2018-04-14T08:00:17.303Z,14.75
2018-04-14T08:02:44.821Z,14.35
2018-04-14T08:05:12.354Z,14.33
2018-04-14T08:07:39.881Z,14.30
2018-04-14T08:10:07.449Z,13.97
2018-04-14T08:12:34.962Z,13.84
2018-04-14T08:15:02.492Z,13.79
2018-04-14T08:17:30.039Z,13.73
2018-04-14T08:19:57.567Z,13.90
2018-04-14T08:22:25.107Z,14.04
2018-04-14T08:24:52.728Z,14.15
2018-04-14T08:27:20.247Z,14.32
2018-04-14T08:29:47.784Z,14.40
2018-04-14T08:32:15.448Z,14.44
2018-04-14T08:34:43.093Z,14.77
2018-04-14T08:37:10.707Z,14.89
2018-04-14T08:39:38.232Z,15.03
2018-04-14T08:42:05.756Z,14.64
2018-04-14T08:44:33.751Z,15.13
2018-04-14T08:47:01.387Z,14.93
2018-04-14T08:49:28.913Z,14.95
2018-04-14T08:51:56.460Z,14.81
2018-04-14T08:54:24.008Z,14.98
2018-04-14T08:56:51.544Z,14.85
2018-04-14T08:59:19.170Z,14.88
2018-04-14T09:01:46.746Z,15.01
2018-04-14T09:04:14.268Z,14.85
2018-04-14T09:06:41.823Z,14.66
2018-04-14T09:09:09.472Z,15.32
2018-04-14T09:11:36.986Z,15.35
2018-04-14T09:14:04.549Z,15.48
2018-04-14T09:16:32.102Z,15.73
2018-04-14T09:18:59.631Z,15.51
2018-04-14T09:21:27.189Z,15.93
2018-04-14T09:23:54.716Z,15.99
2018-04-14T09:26:22.264Z,15.86
2018-04-14T09:28:49.792Z,15.89
2018-04-14T09:31:17.322Z,16.01
2018-04-14T09:33:44.892Z,16.45
2018-04-14T09:36:12.486Z,16.75
2018-04-14T09:38:40.047Z,18.60
2018-04-14T09:41:07.577Z,19.01
2018-04-14T09:43:35.133Z,18.10
2018-04-14T09:46:02.659Z,17.80
2018-04-14T09:48:30.276Z,17.51
2018-04-14T09:50:57.802Z,17.15
2018-04-14T09:53:25.334Z,17.21
2018-04-14T09:55:52.964Z,17.31
2018-04-14T09:58:20.486Z,16.88
2018-04-14T10:00:53.643Z,17.37
2018-04-14T10:03:23.913Z,16.88
2018-04-14T10:05:51.440Z,17.15
2018-04-14T10:08:19.064Z,16.93
2018-04-14T10:10:46.621Z,16.99
2018-04-14T10:13:14.171Z,17.01
2018-04-14T10:15:41.731Z,17.35
2018-04-14T10:18:09.295Z,17.18
2018-04-14T10:20:36.860Z,17.31
2018-04-14T10:23:04.720Z,18.25
2018-04-14T10:25:32.260Z,18.74
2018-04-14T10:27:59.775Z,18.62
2018-04-14T10:30:27.399Z,19.17
2018-04-14T10:32:54.959Z,18.91
2018-04-14T10:35:22.514Z,18.90
2018-04-14T10:37:50.174Z,19.51
2018-04-14T10:40:17.760Z,19.01
2018-04-14T10:42:45.392Z,18.75
2018-04-14T10:45:12.923Z,18.71
2018-04-14T10:47:40.525Z,18.72
2018-04-14T10:50:08.109Z,18.66
2018-04-14T10:52:35.828Z,18.20
2018-04-14T10:55:03.368Z,18.77
2018-04-14T10:57:30.897Z,18.17
2018-04-14T10:59:58.545Z,18.24
2018-04-14T11:02:26.105Z,18.16
2018-04-14T11:04:53.631Z,18.61
2018-04-14T11:07:21.878Z,18.83
2018-04-14T11:09:49.418Z,19.81
2018-04-14T11:12:17.371Z,19.80
2018-04-14T11:14:47.739Z,19.74
2018-04-14T11:20:03.092Z,18.71
2018-04-14T11:22:30.617Z,18.46
2018-04-14T11:24:58.153Z,18.61
2018-04-14T11:27:25.684Z,18.50
2018-04-14T11:29:53.215Z,18.47
2018-04-14T11:32:20.748Z,18.20
2018-04-14T11:34:48.296Z,18.21
2018-04-14T11:37:15.834Z,18.24
2018-04-14T11:39:43.373Z,17.98
2018-04-14T11:42:10.897Z,18.14
2018-04-14T11:44:38.429Z,18.24
2018-04-14T11:47:05.963Z,17.85
2018-04-14T11:49:33.489Z,17.66
2018-04-14T11:52:01.033Z,17.62
2018-04-14T11:54:28.563Z,17.46
2018-04-14T11:56:56.085Z,17.31
2018-04-14T11:59:23.609Z,17.43
2018-04-14T12:01:51.138Z,17.18
2018-04-14T12:04:18.660Z,17.28
2018-04-14T12:06:46.191Z,17.04
2018-04-14T12:09:13.715Z,16.99
2018-04-14T12:11:41.251Z,16.72
2018-04-14T12:14:08.765Z,16.49
2018-04-14T12:16:36.293Z,16.30
2018-04-14T12:19:03.836Z,16.49
2018-04-14T12:21:31.370Z,16.44
2018-04-14T12:23:58.900Z,16.22
2018-04-14T12:26:26.424Z,15.51
2018-04-14T12:28:53.953Z,15.33
2018-04-14T12:31:21.480Z,15.37
2018-04-14T12:33:49.043Z,15.22
2018-04-14T12:36:16.637Z,15.08
2018-04-14T12:38:44.165Z,15.44
2018-04-14T12:41:11.691Z,15.59
2018-04-14T12:43:39.245Z,15.84
2018-04-14T12:46:06.773Z,15.59
2018-04-14T12:48:34.331Z,15.51
2018-04-14T12:51:01.865Z,15.18
2018-04-14T12:53:29.384Z,15.11
2018-04-14T12:55:56.924Z,15.06
2018-04-14T12:58:24.464Z,15.27
2018-04-14T13:00:52.023Z,15.55
2018-04-14T13:03:19.584Z,15.69
2018-04-14T13:05:47.134Z,15.72
2018-04-14T13:08:14.675Z,15.75
2018-04-14T13:10:42.269Z,15.46
2018-04-14T13:13:09.899Z,15.27
2018-04-14T13:15:37.436Z,15.63
2018-04-14T13:18:04.980Z,15.75
2018-04-14T13:20:32.648Z,15.90
2018-04-14T13:23:00.279Z,15.98
2018-04-14T13:25:27.805Z,15.79
2018-04-14T13:27:55.337Z,16.12
2018-04-14T13:30:22.869Z,15.95
2018-04-14T13:32:50.413Z,16.13
2018-04-14T13:35:17.971Z,16.19
2018-04-14T13:37:45.503Z,16.26
2018-04-14T13:40:13.088Z,16.28
2018-04-14T13:42:40.688Z,16.45
2018-04-14T13:45:09.137Z,16.66
2018-04-14T13:47:36.850Z,16.74
2018-04-14T13:50:04.766Z,16.70
2018-04-14T13:52:32.436Z,16.73
2018-04-14T13:55:00.204Z,16.84
2018-04-14T13:57:28.161Z,16.97
2018-04-14T13:59:55.823Z,16.99
2018-04-14T14:02:23.350Z,17.08
2018-04-14T14:04:50.891Z,17.07
2018-04-14T14:07:18.812Z,17.17
2018-04-14T14:09:48.862Z,17.23
2018-04-14T14:12:16.493Z,17.22
2018-04-14T14:14:44.016Z,17.28
2018-04-14T14:17:11.611Z,17.29
2018-04-14T14:19:39.229Z,17.23
2018-04-14T14:22:07.243Z,17.25
2018-04-14T14:24:34.905Z,17.31
2018-04-14T14:27:02.432Z,17.47
2018-04-14T14:43:32.259Z,19.04
2018-04-14T14:45:59.837Z,18.24
2018-04-14T14:48:28.525Z,18.20
2018-04-14T14:50:56.024Z,17.97
2018-04-14T14:53:23.581Z,18.09
2018-04-14T14:55:51.114Z,17.99
2018-04-14T14:58:18.636Z,17.93
2018-04-14T15:00:46.173Z,18.00
2018-04-14T15:03:13.801Z,18.15
2018-04-14T15:05:41.337Z,18.04
2018-04-14T15:08:08.863Z,17.98
2018-04-14T15:10:36.458Z,17.85
2018-04-14T15:13:03.993Z,17.94
2018-04-14T15:15:31.536Z,18.02
2018-04-14T15:17:59.132Z,18.03
2018-04-14T15:20:26.699Z,18.06
2018-04-14T15:22:54.218Z,17.95
2018-04-14T15:25:21.760Z,17.98
2018-04-14T15:27:49.376Z,17.97
2018-04-14T15:30:16.903Z,17.96
2018-04-14T15:32:44.431Z,18.05
2018-04-14T15:35:11.957Z,17.98
2018-04-14T15:37:39.508Z,17.99
2018-04-14T15:40:07.057Z,18.13
2018-04-14T15:42:34.583Z,17.96
2018-04-14T15:45:02.135Z,17.88
2018-04-14T15:47:29.689Z,17.86
2018-04-14T15:49:57.311Z,17.82
2018-04-14T15:52:24.872Z,17.95
2018-04-14T15:54:52.400Z,17.91
2018-04-14T15:57:19.920Z,17.91
2018-04-14T15:59:47.451Z,17.90
2018-04-14T16:02:14.972Z,17.95
2018-04-14T16:04:42.564Z,18.08
2018-04-14T16:07:10.096Z,17.79
2018-04-14T16:09:37.623Z,17.94
2018-04-14T16:12:05.156Z,17.94
2018-04-14T16:14:32.705Z,17.81
2018-04-14T16:17:00.258Z,17.72
2018-04-14T16:19:27.792Z,17.83
2018-04-14T16:21:55.334Z,17.72
2018-04-14T16:24:22.906Z,17.67
2018-04-14T16:26:50.451Z,17.64
2018-04-14T16:29:17.987Z,17.60
2018-04-14T16:31:45.525Z,17.69
2018-04-14T16:34:13.057Z,17.66
2018-04-14T16:36:40.646Z,17.54
2018-04-14T16:39:08.205Z,17.73
2018-04-14T16:41:35.727Z,17.60
2018-04-14T16:44:03.259Z,17.85
2018-04-14T16:46:30.800Z,17.58
2018-04-14T16:48:58.342Z,17.47
2018-04-14T16:51:25.876Z,17.37
2018-04-14T16:53:53.412Z,17.39
2018-04-14T16:56:20.951Z,17.26
2018-04-14T16:58:48.480Z,17.25
2018-04-14T17:01:16.052Z,17.19
2018-04-14T17:03:43.571Z,17.15
2018-04-14T17:06:11.102Z,17.11
2018-04-14T17:08:38.648Z,17.17
2018-04-14T17:11:06.280Z,17.07
2018-04-14T17:13:33.811Z,17.06
2018-04-14T17:16:01.333Z,16.96
2018-04-14T17:18:28.861Z,16.87
2018-04-14T17:20:56.418Z,16.84
2018-04-14T17:23:23.967Z,16.82
2018-04-14T17:25:51.511Z,16.71
2018-04-14T17:28:19.033Z,16.71
2018-04-14T17:30:46.571Z,16.59
2018-04-14T17:33:14.100Z,16.54
2018-04-14T17:35:41.677Z,16.49
2018-04-14T17:38:09.256Z,16.44
2018-04-14T17:40:36.898Z,16.41
2018-04-14T17:43:04.425Z,16.32
2018-04-14T17:45:32.003Z,16.35
2018-04-14T17:47:59.574Z,16.19
2018-04-14T17:50:27.123Z,16.12
2018-04-14T17:52:54.668Z,16.11
2018-04-14T17:55:22.245Z,16.03
2018-04-14T17:57:49.782Z,15.91
2018-04-14T18:00:17.378Z,15.87
2018-04-14T18:02:45.229Z,15.87
2018-04-14T18:05:12.774Z,15.85
2018-04-14T18:07:40.322Z,15.77
2018-04-14T18:10:08.183Z,15.73
2018-04-14T18:12:35.759Z,15.68
2018-04-14T18:15:03.275Z,15.62
2018-04-14T18:17:30.809Z,15.49
2018-04-14T18:19:58.338Z,15.46
2018-04-14T18:22:25.885Z,15.38
2018-04-14T18:24:53.448Z,15.34
2018-04-14T18:27:21.017Z,15.33
2018-04-14T18:29:48.594Z,15.32
2018-04-14T18:32:16.120Z,15.28
2018-04-14T18:34:43.651Z,15.58
2018-04-14T18:37:11.188Z,15.52
2018-04-14T18:39:38.776Z,15.54
2018-04-14T18:42:06.411Z,15.62
2018-04-14T18:44:33.934Z,15.62
2018-04-14T18:47:01.456Z,15.59
2018-04-14T18:49:29.089Z,15.53
2018-04-14T18:51:56.621Z,15.49
2018-04-14T18:54:24.148Z,15.41
2018-04-14T18:56:51.737Z,15.43
2018-04-14T18:59:19.260Z,15.32
2018-04-14T19:01:46.825Z,15.25
2018-04-14T19:04:14.347Z,15.26
2018-04-14T19:06:41.873Z,15.22
2018-04-14T19:09:09.436Z,15.16
2018-04-14T19:11:36.960Z,15.11
2018-04-14T19:14:04.490Z,15.06
2018-04-14T19:16:32.031Z,15.06
2018-04-14T19:18:59.608Z,15.08
2018-04-14T19:21:27.165Z,15.09
2018-04-14T19:23:54.687Z,15.03
2018-04-14T19:26:22.289Z,14.97
2018-04-14T19:28:49.817Z,14.95
2018-04-14T19:31:17.338Z,14.89
2018-04-14T19:33:44.876Z,14.79
2018-04-14T19:36:12.526Z,14.75
2018-04-14T19:38:40.048Z,14.77
2018-04-14T19:41:08.471Z,14.59
2018-04-14T19:43:36.009Z,14.76
2018-04-14T19:46:03.553Z,14.69
2018-04-14T19:48:31.096Z,14.71
2018-04-14T19:50:58.807Z,14.71
2018-04-14T19:53:26.370Z,14.71
2018-04-14T19:55:53.895Z,14.67
2018-04-14T19:58:21.485Z,14.70
2018-04-14T20:00:50.099Z,14.62
2018-04-14T20:03:18.452Z,14.62
2018-04-14T20:05:46.010Z,14.47
2018-04-14T20:08:13.672Z,14.46
2018-04-14T20:10:41.333Z,14.40
2018-04-14T20:13:08.872Z,14.39
2018-04-14T20:15:36.512Z,14.36
2018-04-14T20:18:04.039Z,14.33
2018-04-14T20:20:31.675Z,14.31
2018-04-14T20:22:59.202Z,14.31
2018-04-14T20:25:26.725Z,14.25
2018-04-14T20:27:54.490Z,14.08
2018-04-14T20:30:22.017Z,14.16
2018-04-14T20:32:49.563Z,14.12
2018-04-14T20:35:17.112Z,14.04
2018-04-14T20:37:44.653Z,14.06
2018-04-14T20:40:12.209Z,14.07
2018-04-14T20:42:39.747Z,13.97
2018-04-14T20:45:07.374Z,13.97
2018-04-14T20:47:34.909Z,13.97
2018-04-14T20:50:02.433Z,13.93
2018-04-14T20:52:29.984Z,13.93
2018-04-14T20:54:57.682Z,13.89
2018-04-14T20:57:25.253Z,13.82
2018-04-14T20:59:53.169Z,13.85
2018-04-14T21:02:20.751Z,13.86
2018-04-14T21:04:48.291Z,13.88
2018-04-14T21:07:15.822Z,13.89
2018-04-14T21:09:43.387Z,13.92
2018-04-14T21:12:10.947Z,13.86
2018-04-14T21:14:38.476Z,13.86
2018-04-14T21:17:05.999Z,13.68
2018-04-14T21:19:33.522Z,13.63
2018-04-14T21:22:01.233Z,13.61
2018-04-14T21:24:28.805Z,13.46
2018-04-14T21:26:56.391Z,13.56
2018-04-14T21:29:23.923Z,13.66
2018-04-14T21:31:51.523Z,13.58
2018-04-14T21:34:19.056Z,13.58
2018-04-14T21:36:46.647Z,13.57
2018-04-14T21:39:14.172Z,13.57
2018-04-14T21:41:41.767Z,13.61
2018-04-14T21:44:09.294Z,13.53
2018-04-14T21:46:36.818Z,13.51
2018-04-14T21:49:04.441Z,13.57
2018-04-14T21:51:31.978Z,13.68
2018-04-14T21:53:59.501Z,13.69
2018-04-14T21:56:27.024Z,13.69
2018-04-14T21:58:54.549Z,13.74
2018-04-14T22:01:22.068Z,13.66
2018-04-14T22:03:49.600Z,13.66
2018-04-14T22:06:17.123Z,13.58
2018-04-14T22:08:44.707Z,13.57
2018-04-14T22:11:12.247Z,13.56
2018-04-14T22:13:39.839Z,13.43
2018-04-14T22:16:07.373Z,13.38
2018-04-14T22:18:34.888Z,13.35
2018-04-14T22:21:02.418Z,13.38
2018-04-14T22:23:29.978Z,13.32
2018-04-14T22:25:57.540Z,13.26
2018-04-14T22:28:25.094Z,13.20
2018-04-14T22:30:52.611Z,13.16
2018-04-14T22:33:20.223Z,13.20
2018-04-14T22:35:47.752Z,13.23
2018-04-14T22:38:15.304Z,13.29
2018-04-14T22:40:42.899Z,13.16
2018-04-14T22:43:10.461Z,13.17
2018-04-14T22:45:37.988Z,13.12
2018-04-14T22:48:05.574Z,13.12
2018-04-14T22:50:33.108Z,13.07
2018-04-14T22:53:00.702Z,13.12
2018-04-14T22:55:28.257Z,12.96
2018-04-14T22:57:55.815Z,12.95
2018-04-14T23:00:23.348Z,12.92
2018-04-14T23:02:50.883Z,12.85
2018-04-14T23:05:18.419Z,12.90
2018-04-14T23:07:45.959Z,12.79
2018-04-14T23:10:13.615Z,12.86
2018-04-14T23:12:41.149Z,12.81
2018-04-14T23:15:08.738Z,12.85
2018-04-14T23:17:36.293Z,12.81
2018-04-14T23:20:03.826Z,12.79
2018-04-14T23:22:31.357Z,12.73
2018-04-14T23:24:58.904Z,12.69
2018-04-14T23:27:26.434Z,12.71
2018-04-14T23:29:53.959Z,12.60
2018-04-14T23:32:21.549Z,12.60
2018-04-14T23:34:49.082Z,12.60
2018-04-14T23:37:16.672Z,12.54
2018-04-14T23:39:44.228Z,12.59
2018-04-14T23:42:11.793Z,12.59
2018-04-14T23:44:39.319Z,12.57
2018-04-14T23:47:06.915Z,12.58
2018-04-14T23:49:34.445Z,12.55
2018-04-14T23:52:01.977Z,12.47
2018-04-14T23:54:29.516Z,12.53
2018-04-14T23:56:57.048Z,12.51
2018-04-14T23:59:24.580Z,12.47
